Time;durP1;ratioP1;P1;durP2;ratioP2;P2;SDS_P1;SDS_P2;PMS_P1;PMS_P2;Temp;Humidity;BMP_temperature;BMP_pressure;BME280_temperature;BME280_humidity;BME280_pressure;Samples;Min_cycle;Max_cycle;Signal;HPM_P1;HPM_P2
2022/08/25 00:01:36;;;;;;;8.15;6.82;;;;;;;;;;5036763;28;20052;-69
2022/08/25 00:04:05;;;;;;;8.27;6.88;;;;;;;;;;5069114;28;20059;-69
2022/08/25 00:06:30;;;;;;;12.95;7.55;;;;;;;;;;5068984;28;20052;-70
2022/08/25 00:08:58;;;;;;;8.90;7.30;;;;;;;;;;5069035;28;20053;-70
2022/08/25 00:11:30;;;;;;;13.50;7.75;;;;;;;;;;5051704;28;20052;-69
2022/08/25 00:13:59;;;;;;;10.57;7.13;;;;;;;;;;5068666;28;20568;-69
2022/08/25 00:16:26;;;;;;;10.07;6.93;;;;;;;;;;5057801;28;20094;-70
2022/08/25 00:18:57;;;;;;;8.73;7.25;;;;;;;;;;5048946;28;20041;-69
2022/08/25 00:21:23;;;;;;;10.95;7.68;;;;;;;;;;5047653;28;20136;-69
2022/08/25 00:23:49;;;;;;;10.15;7.97;;;;;;;;;;5063003;28;20126;-69
2022/08/25 00:26:15;;;;;;;14.02;8.25;;;;;;;;;;5068883;28;20056;-69
2022/08/25 00:28:41;;;;;;;12.55;8.43;;;;;;;;;;5068990;28;20064;-68
2022/08/25 00:31:14;;;;;;;12.23;8.57;;;;;;;;;;5058335;28;20082;-68
2022/08/25 00:33:40;;;;;;;10.73;8.48;;;;;;;;;;5055423;28;20459;-69
2022/08/25 00:36:06;;;;;;;13.32;8.60;;;;;;;;;;5067726;28;20501;-69
2022/08/25 00:38:32;;;;;;;14.45;8.80;;;;;;;;;;5068659;28;20068;-69
2022/08/25 00:41:06;;;;;;;11.05;8.68;;;;;;;;;;5067771;28;20079;-69
2022/08/25 00:43:36;;;;;;;12.68;8.55;;;;;;;;;;5055439;28;20068;-69
2022/08/25 00:46:02;;;;;;;12.45;8.77;;;;;;;;;;5056827;28;20052;-69
2022/08/25 00:48:28;;;;;;;13.35;8.90;;;;;;;;;;5052531;28;20421;-69
2022/08/25 00:50:53;;;;;;;13.80;9.35;;;;;;;;;;5052160;28;20132;-69
2022/08/25 00:53:19;;;;;;;10.07;8.57;;;;;;;;;;5050859;28;20134;-69
2022/08/25 00:55:45;;;;;;;12.13;8.43;;;;;;;;;;5065787;28;20059;-69
2022/08/25 00:58:17;;;;;;;13.10;8.70;;;;;;;;;;5072198;28;20052;-69
2022/08/25 01:00:49;;;;;;;12.73;8.55;;;;;;;;;;5066213;28;20102;-69
2022/08/25 01:03:17;;;;;;;13.80;9.00;;;;;;;;;;5051802;28;20067;-69
2022/08/25 01:05:44;;;;;;;15.55;9.10;;;;;;;;;;5050680;28;20116;-70
2022/08/25 01:08:10;;;;;;;12.32;9.15;;;;;;;;;;5069503;28;20075;-70
2022/08/25 01:10:40;;;;;;;12.57;9.40;;;;;;;;;;5072098;28;20094;-70
2022/08/25 01:13:11;;;;;;;14.05;9.63;;;;;;;;;;5071828;28;20040;-70
2022/08/25 01:15:37;;;;;;;13.52;9.30;;;;;;;;;;5065517;28;20041;-70
2022/08/25 01:18:02;;;;;;;15.85;9.13;;;;;;;;;;5068192;28;20573;-69
2022/08/25 01:20:30;;;;;;;11.73;9.40;;;;;;;;;;5071860;28;20052;-70
2022/08/25 01:22:56;;;;;;;11.82;9.73;;;;;;;;;;5071413;28;20479;-69
2022/08/25 01:25:49;;;;;;;14.70;10.18;;;;;;;;;;5071736;28;20135;-70
2022/08/25 01:28:15;;;;;;;12.85;9.90;;;;;;;;;;5052435;28;20045;-69
2022/08/25 01:30:41;;;;;;;15.38;9.60;;;;;;;;;;5065060;28;20521;-70
2022/08/25 01:33:08;;;;;;;16.13;9.95;;;;;;;;;;5051421;28;20124;-70
2022/08/25 01:35:34;;;;;;;17.63;11.02;;;;;;;;;;5044099;28;20111;-70
2022/08/25 01:38:01;;;;;;;15.57;10.63;;;;;;;;;;5046552;28;20041;-70
2022/08/25 01:40:27;;;;;;;15.18;10.43;;;;;;;;;;5053847;28;20115;-70
2022/08/25 01:43:08;;;;;;;16.40;10.60;;;;;;;;;;5070951;28;20159;-70
2022/08/25 01:45:35;;;;;;;15.40;10.57;;;;;;;;;;5065078;28;20187;-69
2022/08/25 01:48:01;;;;;;;12.48;9.80;;;;;;;;;;5051473;28;20053;-70
2022/08/25 01:50:27;;;;;;;11.85;9.23;;;;;;;;;;5061625;28;20661;-70
2022/08/25 01:53:05;;;;;;;15.73;9.45;;;;;;;;;;5070825;28;20194;-69
2022/08/25 01:55:50;;;;;;;17.48;10.00;;;;;;;;;;5070406;28;20056;-70
2022/08/25 01:58:17;;;;;;;13.82;9.35;;;;;;;;;;5070356;28;20055;-69
2022/08/25 02:00:48;;;;;;;12.88;9.10;;;;;;;;;;5056494;28;20041;-70
2022/08/25 02:03:14;;;;;;;14.68;9.55;;;;;;;;;;5060188;28;20057;-70
2022/08/25 02:05:39;;;;;;;11.15;8.70;;;;;;;;;;5070131;28;20067;-70
2022/08/25 02:08:05;;;;;;;12.52;9.07;;;;;;;;;;5069524;28;20127;-70
2022/08/25 02:10:32;;;;;;;13.77;9.23;;;;;;;;;;5066280;28;20060;-70
2022/08/25 02:12:58;;;;;;;11.25;8.88;;;;;;;;;;5066267;28;20051;-70
2022/08/25 02:15:23;;;;;;;13.27;9.23;;;;;;;;;;5067668;28;20045;-69
2022/08/25 02:17:49;;;;;;;14.75;9.27;;;;;;;;;;5049970;28;20095;-70
2022/08/25 02:20:14;;;;;;;16.30;9.35;;;;;;;;;;5050510;28;20406;-70
2022/08/25 02:22:40;;;;;;;15.10;9.63;;;;;;;;;;5049329;28;20128;-70
2022/08/25 02:25:06;;;;;;;13.82;9.90;;;;;;;;;;5049073;28;20148;-70
2022/08/25 02:27:31;;;;;;;15.20;9.70;;;;;;;;;;5050055;28;20487;-70
2022/08/25 02:29:56;;;;;;;15.05;9.68;;;;;;;;;;5050215;28;20053;-70
2022/08/25 02:32:22;;;;;;;14.43;9.40;;;;;;;;;;5049097;28;20102;-70
2022/08/25 02:34:48;;;;;;;16.42;11.00;;;;;;;;;;5064869;28;20505;-70
2022/08/25 02:37:13;;;;;;;17.67;9.85;;;;;;;;;;5070156;28;20053;-70
2022/08/25 02:39:39;;;;;;;19.08;9.90;;;;;;;;;;5069484;28;20044;-69
2022/08/25 02:42:04;;;;;;;15.10;9.38;;;;;;;;;;5069941;28;20125;-70
2022/08/25 02:44:30;;;;;;;14.43;9.88;;;;;;;;;;5061321;28;20076;-70
2022/08/25 02:46:56;;;;;;;14.68;9.50;;;;;;;;;;5054647;28;20075;-69
2022/08/25 02:49:21;;;;;;;14.63;9.88;;;;;;;;;;5050027;28;20048;-69
2022/08/25 02:51:47;;;;;;;17.17;9.30;;;;;;;;;;5049133;28;20041;-69
2022/08/25 02:54:13;;;;;;;13.25;9.60;;;;;;;;;;5049082;28;20055;-69
2022/08/25 02:56:39;;;;;;;16.45;9.88;;;;;;;;;;5053405;28;20176;-69
2022/08/25 02:59:04;;;;;;;15.48;9.55;;;;;;;;;;5069906;28;20060;-69
2022/08/25 03:01:31;;;;;;;16.40;11.10;;;;;;;;;;5056980;28;20053;-69
2022/08/25 03:03:58;;;;;;;16.90;10.60;;;;;;;;;;5050028;28;20139;-69
2022/08/25 03:06:24;;;;;;;17.83;10.30;;;;;;;;;;5051592;28;20136;-68
2022/08/25 03:08:51;;;;;;;17.05;10.02;;;;;;;;;;5069234;28;20036;-69
2022/08/25 03:11:17;;;;;;;14.70;9.30;;;;;;;;;;5069495;28;20048;-69
2022/08/25 03:13:42;;;;;;;19.15;11.20;;;;;;;;;;5069063;28;20056;-69
2022/08/25 03:16:08;;;;;;;15.63;10.70;;;;;;;;;;5058811;28;20045;-69
2022/08/25 03:18:34;;;;;;;15.73;10.00;;;;;;;;;;5053349;28;20063;-69
2022/08/25 03:20:59;;;;;;;16.88;10.07;;;;;;;;;;5069498;28;20422;-69
2022/08/25 03:23:25;;;;;;;18.63;10.77;;;;;;;;;;5069108;28;20142;-70
2022/08/25 03:28:37;;;;;;;15.88;10.15;;;;;;;;;;5060572;28;20131;-69
2022/08/25 03:31:03;;;;;;;16.80;10.38;;;;;;;;;;5060844;28;20136;-69
2022/08/25 03:33:29;;;;;;;18.55;10.90;;;;;;;;;;5049166;28;20064;-69
2022/08/25 03:35:55;;;;;;;17.85;11.20;;;;;;;;;;5040812;28;20045;-69
2022/08/25 03:38:22;;;;;;;19.42;11.02;;;;;;;;;;5063825;28;20064;-69
2022/08/25 03:40:49;;;;;;;17.27;11.20;;;;;;;;;;5046436;28;20384;-69
2022/08/25 03:43:14;;;;;;;21.80;12.32;;;;;;;;;;5064634;28;20127;-69
2022/08/25 03:45:42;;;;;;;17.55;12.18;;;;;;;;;;5063734;28;20565;-69
2022/08/25 03:48:07;;;;;;;22.13;12.40;;;;;;;;;;5049185;28;20573;-69
2022/08/25 03:50:33;;;;;;;21.38;12.65;;;;;;;;;;5037718;28;20049;-69
2022/08/25 03:52:58;;;;;;;17.45;11.90;;;;;;;;;;5045557;28;20041;-69
2022/08/25 03:55:24;;;;;;;19.60;12.30;;;;;;;;;;5068518;28;20087;-69
2022/08/25 03:57:51;;;;;;;20.75;12.18;;;;;;;;;;5068601;28;20401;-69
2022/08/25 04:00:18;;;;;;;22.27;12.63;;;;;;;;;;5066342;28;20464;-67
2022/08/25 04:02:44;;;;;;;20.27;12.38;;;;;;;;;;5030674;28;20076;-68
2022/08/25 04:05:10;;;;;;;19.58;12.15;;;;;;;;;;5066488;28;20067;-68
2022/08/25 04:07:36;;;;;;;25.75;13.85;;;;;;;;;;5068498;28;20747;-69
2022/08/25 04:10:04;;;;;;;21.58;12.13;;;;;;;;;;5069048;28;20143;-69
2022/08/25 04:12:29;;;;;;;22.15;12.85;;;;;;;;;;5059780;28;20044;-69
2022/08/25 04:14:55;;;;;;;24.60;13.18;;;;;;;;;;5068806;28;20470;-68
2022/08/25 04:17:20;;;;;;;24.60;13.73;;;;;;;;;;5049968;28;20044;-69
2022/08/25 04:19:46;;;;;;;21.02;13.68;;;;;;;;;;5048274;28;20442;-69
2022/08/25 04:22:11;;;;;;;26.23;14.75;;;;;;;;;;5050465;28;20036;-69
2022/08/25 04:24:37;;;;;;;26.95;15.27;;;;;;;;;;5065697;28;20059;-69
2022/08/25 04:27:02;;;;;;;27.85;15.43;;;;;;;;;;5071402;28;20067;-69
2022/08/25 04:29:28;;;;;;;29.77;14.90;;;;;;;;;;5072644;28;20048;-69
2022/08/25 04:31:54;;;;;;;26.00;14.93;;;;;;;;;;5056480;28;20071;-68
2022/08/25 04:34:24;;;;;;;26.38;15.50;;;;;;;;;;5053585;28;20045;-68
2022/08/25 04:36:49;;;;;;;27.02;15.48;;;;;;;;;;5072337;28;20059;-68
2022/08/25 04:39:19;;;;;;;27.08;15.05;;;;;;;;;;5093635;22;20048;-68
2022/08/25 04:41:44;;;;;;;26.15;14.60;;;;;;;;;;5030410;28;20546;-68
2022/08/25 04:44:10;;;;;;;23.58;13.90;;;;;;;;;;5032302;28;20092;-68
2022/08/25 04:46:35;;;;;;;21.85;13.70;;;;;;;;;;5056511;28;20052;-68
2022/08/25 04:49:02;;;;;;;23.95;13.88;;;;;;;;;;5056288;28;20056;-67
2022/08/25 04:51:31;;;;;;;23.48;13.23;;;;;;;;;;5052225;28;20045;-67
2022/08/25 04:54:04;;;;;;;19.77;12.13;;;;;;;;;;5052188;28;20056;-68
2022/08/25 04:56:32;;;;;;;18.45;12.77;;;;;;;;;;5051685;28;20041;-68
2022/08/25 04:59:04;;;;;;;24.08;13.38;;;;;;;;;;5060500;28;20045;-68
2022/08/25 05:01:30;;;;;;;22.50;13.95;;;;;;;;;;5051953;28;20053;-68
2022/08/25 05:03:59;;;;;;;22.02;13.75;;;;;;;;;;5051800;28;20175;-68
2022/08/25 05:06:25;;;;;;;24.25;13.60;;;;;;;;;;5051325;28;20049;-68
2022/08/25 05:08:51;;;;;;;23.42;15.38;;;;;;;;;;5060396;28;20094;-68
2022/08/25 05:11:18;;;;;;;27.38;16.08;;;;;;;;;;5070441;28;20440;-68
2022/08/25 05:13:46;;;;;;;23.38;12.85;;;;;;;;;;5069925;28;20387;-67
2022/08/25 05:16:12;;;;;;;16.02;11.85;;;;;;;;;;5053036;28;20152;-68
2022/08/25 05:18:38;;;;;;;19.75;11.20;;;;;;;;;;5044231;28;20040;-68
2022/08/25 05:21:06;;;;;;;15.57;10.30;;;;;;;;;;5059879;28;20534;-67
2022/08/25 05:23:32;;;;;;;15.18;9.88;;;;;;;;;;5051046;28;20491;-68
2022/08/25 05:26:11;;;;;;;14.48;10.15;;;;;;;;;;5051861;28;20080;-67
2022/08/25 05:28:39;;;;;;;16.15;9.85;;;;;;;;;;5051020;28;20057;-68
2022/08/25 05:31:07;;;;;;;14.07;9.68;;;;;;;;;;5043553;28;20056;-69
2022/08/25 05:33:33;;;;;;;13.45;9.63;;;;;;;;;;5049633;28;20040;-68
2022/08/25 05:35:59;;;;;;;16.73;9.52;;;;;;;;;;5051600;28;20052;-68
2022/08/25 05:38:25;;;;;;;11.43;8.65;;;;;;;;;;5051736;28;20079;-68
2022/08/25 05:40:58;;;;;;;12.75;8.57;;;;;;;;;;5050398;28;20554;-68
2022/08/25 05:43:24;;;;;;;12.43;9.48;;;;;;;;;;5059251;28;20071;-68
2022/08/25 05:45:53;;;;;;;15.88;9.40;;;;;;;;;;5050849;28;20057;-68
2022/08/25 05:48:18;;;;;;;12.43;8.85;;;;;;;;;;5050553;28;20052;-68
2022/08/25 05:50:51;;;;;;;12.68;8.52;;;;;;;;;;5050346;28;20576;-72
2022/08/25 05:53:16;;;;;;;10.85;8.10;;;;;;;;;;5052605;28;20495;-72
2022/08/25 05:55:43;;;;;;;12.85;9.00;;;;;;;;;;5064126;28;20037;-73
2022/08/25 05:58:09;;;;;;;12.88;8.50;;;;;;;;;;5040420;28;20040;-73
2022/08/25 06:00:36;;;;;;;12.70;8.43;;;;;;;;;;5041377;28;20056;-74
2022/08/25 06:03:02;;;;;;;12.10;8.07;;;;;;;;;;5048386;28;20036;-73
2022/08/25 06:05:28;;;;;;;14.95;7.53;;;;;;;;;;5040586;28;20086;-73
2022/08/25 06:07:54;;;;;;;11.05;7.65;;;;;;;;;;5037734;28;20131;-73
2022/08/25 06:10:20;;;;;;;10.50;7.30;;;;;;;;;;5041438;28;20128;-74
2022/08/25 06:12:47;;;;;;;10.35;7.88;;;;;;;;;;5042757;28;20144;-73
2022/08/25 06:15:16;;;;;;;12.20;8.13;;;;;;;;;;5046903;28;20045;-72
2022/08/25 06:17:42;;;;;;;9.25;7.22;;;;;;;;;;5038643;28;20046;-72
2022/08/25 06:20:09;;;;;;;13.10;8.52;;;;;;;;;;5040684;28;20049;-72
2022/08/25 06:22:36;;;;;;;9.73;7.28;;;;;;;;;;5039954;28;20092;-72
2022/08/25 06:25:05;;;;;;;8.45;7.40;;;;;;;;;;5048357;28;20118;-72
2022/08/25 06:27:31;;;;;;;11.27;8.35;;;;;;;;;;5039617;28;20108;-75
2022/08/25 06:29:57;;;;;;;10.68;7.68;;;;;;;;;;5039250;28;20136;-73
2022/08/25 06:32:22;;;;;;;10.07;7.65;;;;;;;;;;5049393;28;20077;-73
2022/08/25 06:34:47;;;;;;;8.75;7.15;;;;;;;;;;5042465;28;20044;-72
2022/08/25 06:37:13;;;;;;;13.52;7.35;;;;;;;;;;5043281;28;20394;-74
2022/08/25 06:39:38;;;;;;;8.30;6.88;;;;;;;;;;5038623;28;20068;-71
2022/08/25 06:42:04;;;;;;;10.23;6.75;;;;;;;;;;5036079;28;20045;-71
2022/08/25 06:44:30;;;;;;;11.45;7.38;;;;;;;;;;5040095;28;20075;-71
2022/08/25 06:46:56;;;;;;;10.70;7.18;;;;;;;;;;5040373;28;20041;-71
2022/08/25 06:49:21;;;;;;;9.73;7.20;;;;;;;;;;5041832;28;20037;-71
2022/08/25 06:51:47;;;;;;;9.95;8.10;;;;;;;;;;5038931;28;20056;-71
2022/08/25 06:54:12;;;;;;;11.68;7.78;;;;;;;;;;5040095;28;20045;-71
2022/08/25 06:56:39;;;;;;;9.90;7.53;;;;;;;;;;5039704;28;20040;-70
2022/08/25 06:59:07;;;;;;;10.60;7.85;;;;;;;;;;5047429;28;20422;-73
2022/08/25 07:01:33;;;;;;;9.88;8.15;;;;;;;;;;5038966;28;20482;-70
2022/08/25 07:04:00;;;;;;;11.90;7.95;;;;;;;;;;5037199;28;20042;-69
2022/08/25 07:06:27;;;;;;;11.63;6.63;;;;;;;;;;5031629;28;20049;-70
2022/08/25 07:08:53;;;;;;;8.10;6.43;;;;;;;;;;5052202;28;20065;-70
2022/08/25 07:11:21;;;;;;;12.65;5.95;;;;;;;;;;5041826;28;20499;-71
2022/08/25 07:13:48;;;;;;;8.80;6.80;;;;;;;;;;5039409;28;20049;-71
2022/08/25 07:16:14;;;;;;;8.25;6.35;;;;;;;;;;5044833;28;20065;-71
2022/08/25 07:18:40;;;;;;;9.13;6.25;;;;;;;;;;5046466;28;20513;-71
2022/08/25 07:21:05;;;;;;;8.35;5.82;;;;;;;;;;5051507;28;20131;-71
2022/08/25 07:23:31;;;;;;;6.45;5.70;;;;;;;;;;5046703;28;20140;-74
2022/08/25 07:26:12;;;;;;;9.98;5.70;;;;;;;;;;5035476;28;20049;-71
2022/08/25 07:28:38;;;;;;;5.97;5.35;;;;;;;;;;5044121;28;20102;-71
2022/08/25 07:31:04;;;;;;;7.63;5.65;;;;;;;;;;5050776;28;20041;-71
2022/08/25 07:33:30;;;;;;;8.40;5.47;;;;;;;;;;5038809;28;20045;-71
2022/08/25 07:35:56;;;;;;;7.03;5.28;;;;;;;;;;5039912;28;20048;-71
2022/08/25 07:38:22;;;;;;;7.85;5.40;;;;;;;;;;5048961;28;20049;-71
2022/08/25 07:40:53;;;;;;;8.05;6.25;;;;;;;;;;5040810;28;20033;-71
2022/08/25 07:43:21;;;;;;;9.05;5.43;;;;;;;;;;5051110;28;20040;-71
2022/08/25 07:45:46;;;;;;;9.00;6.05;;;;;;;;;;5042706;28;20045;-71
2022/08/25 07:48:12;;;;;;;9.23;6.03;;;;;;;;;;5028972;28;20622;-71
2022/08/25 07:50:44;;;;;;;9.05;6.03;;;;;;;;;;5043614;28;20128;-71
2022/08/25 07:53:11;;;;;;;8.15;5.57;;;;;;;;;;5052157;28;20056;-71
2022/08/25 07:55:37;;;;;;;8.45;5.85;;;;;;;;;;5039288;28;20111;-71
2022/08/25 07:58:04;;;;;;;9.23;5.50;;;;;;;;;;5046192;28;20529;-71
2022/08/25 08:00:32;;;;;;;7.97;5.80;;;;;;;;;;5039477;28;20407;-69
2022/08/25 08:03:02;;;;;;;7.35;5.55;;;;;;;;;;5042731;28;20045;-69
2022/08/25 08:05:27;;;;;;;7.72;5.10;;;;;;;;;;5052699;28;20114;-70
2022/08/25 08:07:54;;;;;;;6.65;5.07;;;;;;;;;;5052071;28;20136;-69
2022/08/25 08:10:21;;;;;;;5.40;4.90;;;;;;;;;;5052650;28;20041;-70
2022/08/25 08:12:48;;;;;;;6.45;4.63;;;;;;;;;;5051239;28;20080;-70
2022/08/25 08:15:14;;;;;;;6.82;5.30;;;;;;;;;;5066552;28;20186;-70
2022/08/25 08:17:40;;;;;;;10.45;6.47;;;;;;;;;;5049983;28;20060;-69
2022/08/25 08:20:08;;;;;;;6.93;4.47;;;;;;;;;;5051724;28;20041;-69
2022/08/25 08:22:39;;;;;;;9.20;5.18;;;;;;;;;;5051482;28;20105;-69
2022/08/25 08:25:06;;;;;;;6.30;5.40;;;;;;;;;;5059281;28;20045;-70
2022/08/25 08:27:31;;;;;;;6.95;5.10;;;;;;;;;;5063838;28;20060;-69
2022/08/25 08:29:57;;;;;;;8.13;5.15;;;;;;;;;;5071412;28;20044;-70
2022/08/25 08:32:22;;;;;;;9.90;4.43;;;;;;;;;;5052747;28;20048;-69
2022/08/25 08:34:48;;;;;;;5.65;5.07;;;;;;;;;;5051656;28;20123;-69
2022/08/25 08:37:13;;;;;;;6.20;4.60;;;;;;;;;;5060205;28;20397;-69
2022/08/25 08:39:39;;;;;;;6.20;5.18;;;;;;;;;;5051142;28;20071;-70
2022/08/25 08:42:16;;;;;;;8.38;5.13;;;;;;;;;;5049952;28;20060;-69
2022/08/25 08:44:45;;;;;;;5.05;4.50;;;;;;;;;;5051835;28;20056;-70
2022/08/25 08:47:29;;;;;;;11.35;4.25;;;;;;;;;;5051603;28;20060;-70
2022/08/25 08:50:03;;;;;;;4.57;4.18;;;;;;;;;;5055632;28;20103;-70
2022/08/25 08:52:56;;;;;;;4.68;3.70;;;;;;;;;;5051221;28;20418;-71
2022/08/25 08:55:46;;;;;;;6.78;4.07;;;;;;;;;;5051420;28;20048;-70
2022/08/25 08:58:19;;;;;;;4.28;3.30;;;;;;;;;;5043851;28;20050;-71
2022/08/25 09:00:50;;;;;;;5.85;3.13;;;;;;;;;;5054764;28;20103;-71
2022/08/25 09:03:33;;;;;;;4.53;4.13;;;;;;;;;;5031703;28;20499;-70
2022/08/25 09:06:04;;;;;;;9.70;4.00;;;;;;;;;;5031799;28;20053;-71
2022/08/25 09:08:30;;;;;;;4.35;3.50;;;;;;;;;;5042040;28;20052;-70
2022/08/25 09:11:00;;;;;;;5.55;3.50;;;;;;;;;;5059037;28;20040;-71
2022/08/25 09:13:47;;;;;;;3.90;3.45;;;;;;;;;;5051490;28;20045;-71
2022/08/25 09:19:20;;;;;;;7.80;4.57;;;;;;;;;;5041662;28;20048;-71
2022/08/25 09:21:56;;;;;;;6.03;4.10;;;;;;;;;;5041461;28;20445;-71
2022/08/25 09:24:31;;;;;;;6.20;4.18;;;;;;;;;;5042638;28;20101;-71
2022/08/25 09:27:09;;;;;;;9.35;3.90;;;;;;;;;;5042457;28;20045;-71
2022/08/25 09:30:00;;;;;;;6.72;4.43;;;;;;;;;;5040284;28;20136;-71
2022/08/25 09:32:29;;;;;;;7.20;4.10;;;;;;;;;;5037336;28;20107;-71
2022/08/25 09:34:55;;;;;;;8.20;4.78;;;;;;;;;;5042551;28;20064;-71
2022/08/25 09:37:22;;;;;;;5.88;4.18;;;;;;;;;;5042278;28;20410;-73
2022/08/25 09:39:47;;;;;;;6.15;4.60;;;;;;;;;;5041715;28;20117;-71
2022/08/25 09:42:13;;;;;;;6.18;3.90;;;;;;;;;;5041266;28;20457;-71
2022/08/25 09:44:43;;;;;;;8.57;3.92;;;;;;;;;;5041580;28;20406;-71
2022/08/25 09:47:20;;;;;;;6.20;4.40;;;;;;;;;;5041386;28;20053;-71
2022/08/25 09:49:48;;;;;;;4.55;4.00;;;;;;;;;;5041740;28;20084;-71
2022/08/25 09:52:36;;;;;;;5.05;3.58;;;;;;;;;;5040809;28;20485;-71
2022/08/25 09:55:04;;;;;;;4.25;3.33;;;;;;;;;;5041756;28;20063;-71
2022/08/25 09:57:35;;;;;;;4.00;3.47;;;;;;;;;;5041681;28;20098;-71
2022/08/25 10:00:18;;;;;;;4.10;3.57;;;;;;;;;;5041327;28;20064;-71
2022/08/25 10:03:05;;;;;;;5.13;3.60;;;;;;;;;;5040930;28;20052;-71
2022/08/25 10:05:34;;;;;;;4.15;3.47;;;;;;;;;;5041610;28;20048;-71
2022/08/25 10:08:03;;;;;;;8.98;3.90;;;;;;;;;;5041293;28;20156;-71
2022/08/25 10:10:38;;;;;;;4.10;3.65;;;;;;;;;;5042068;28;20387;-72
2022/08/25 10:13:13;;;;;;;7.18;3.13;;;;;;;;;;5039332;28;20087;-72
2022/08/25 10:15:39;;;;;;;7.13;3.67;;;;;;;;;;5041252;28;20052;-72
2022/08/25 10:18:28;;;;;;;6.90;4.10;;;;;;;;;;5040936;28;20053;-71
2022/08/25 10:21:06;;;;;;;6.25;3.78;;;;;;;;;;5040314;28;20056;-71
2022/08/25 10:23:35;;;;;;;6.85;4.38;;;;;;;;;;5041334;28;20045;-70
2022/08/25 10:26:07;;;;;;;8.10;4.13;;;;;;;;;;5040335;28;20053;-71
2022/08/25 10:28:39;;;;;;;5.53;4.03;;;;;;;;;;5038734;28;20493;-71
2022/08/25 10:31:34;;;;;;;6.30;3.70;;;;;;;;;;5038962;28;20083;-70
2022/08/25 10:34:21;;;;;;;5.28;3.92;;;;;;;;;;5037761;28;20047;-71
2022/08/25 10:37:08;;;;;;;5.60;4.00;;;;;;;;;;5038285;28;20082;-71
2022/08/25 10:40:03;;;;;;;7.25;4.03;;;;;;;;;;5039163;28;20583;-72
2022/08/25 10:42:40;;;;;;;5.90;4.32;;;;;;;;;;5037597;28;20052;-71
2022/08/25 10:45:44;;;;;;;7.88;4.03;;;;;;;;;;5039376;28;20055;-71
2022/08/25 10:48:15;;;;;;;5.43;4.18;;;;;;;;;;5027891;28;20056;-71
2022/08/25 10:50:54;;;;;;;5.35;3.95;;;;;;;;;;5038809;28;20082;-71
2022/08/25 10:53:46;;;;;;;7.25;4.07;;;;;;;;;;5038713;28;20422;-71
2022/08/25 10:56:47;;;;;;;10.70;4.70;;;;;;;;;;5023061;28;20040;-71
2022/08/25 10:59:21;;;;;;;11.13;4.57;;;;;;;;;;4950297;28;20042;-71
2022/08/25 11:02:05;;;;;;;4.40;4.00;;;;;;;;;;5036578;28;20047;-71
2022/08/25 11:04:43;;;;;;;6.85;4.25;;;;;;;;;;5036311;28;20045;-71
2022/08/25 11:07:28;;;;;;;8.32;4.53;;;;;;;;;;5038380;28;20096;-73
2022/08/25 11:10:02;;;;;;;6.55;4.15;;;;;;;;;;5036885;28;20057;-73
2022/08/25 11:12:32;;;;;;;8.50;4.60;;;;;;;;;;5037542;28;20052;-71
2022/08/25 11:15:11;;;;;;;6.10;4.40;;;;;;;;;;5039179;28;20107;-73
2022/08/25 11:17:57;;;;;;;5.35;4.60;;;;;;;;;;5037752;28;20043;-71
2022/08/25 11:20:27;;;;;;;10.00;4.22;;;;;;;;;;5037357;28;20182;-71
2022/08/25 11:23:18;;;;;;;7.55;4.40;;;;;;;;;;5038574;28;20379;-74
2022/08/25 11:25:45;;;;;;;;;;;;;;;;;;5037305;28;20558;-71
2022/08/25 11:28:12;;;;;;;8.60;4.30;;;;;;;;;;5038350;28;19920;-71
2022/08/25 11:30:38;;;;;;;6.75;4.65;;;;;;;;;;5037320;28;20048;-71
2022/08/25 11:33:04;;;;;;;9.50;4.07;;;;;;;;;;5038760;28;20049;-71
2022/08/25 11:35:38;;;;;;;7.22;4.13;;;;;;;;;;5038217;28;20049;-74
2022/08/25 11:38:22;;;;;;;8.70;5.25;;;;;;;;;;5037811;28;20422;-72
2022/08/25 11:40:58;;;;;;;6.68;4.20;;;;;;;;;;5036324;28;20048;-72
2022/08/25 11:43:43;;;;;;;5.78;4.53;;;;;;;;;;5051690;28;20087;-72
2022/08/25 11:46:20;;;;;;;8.15;4.68;;;;;;;;;;5022332;28;20041;-72
2022/08/25 11:49:06;;;;;;;6.57;4.50;;;;;;;;;;5038309;28;20410;-72
2022/08/25 11:51:39;;;;;;;7.30;4.47;;;;;;;;;;5037947;28;20037;-72
2022/08/25 11:54:23;;;;;;;7.85;4.10;;;;;;;;;;5049735;28;20049;-72
2022/08/25 11:57:09;;;;;;;7.68;4.28;;;;;;;;;;5036083;28;20045;-71
2022/08/25 11:59:53;;;;;;;5.43;4.13;;;;;;;;;;5035841;28;20565;-74
2022/08/25 12:02:50;;;;;;;8.60;4.80;;;;;;;;;;5036445;28;20045;-73
2022/08/25 12:05:18;;;;;;;7.57;4.57;;;;;;;;;;5038324;28;20041;-71
2022/08/25 12:10:58;;;;;;;13.82;4.50;;;;;;;;;;5033230;28;20499;-72
2022/08/25 12:13:49;;;;;;;8.93;4.45;;;;;;;;;;5036542;28;20052;-72
2022/08/25 12:16:33;;;;;;;11.13;4.45;;;;;;;;;;5039498;28;20581;-68
2022/08/25 12:19:33;;;;;;;11.93;4.82;;;;;;;;;;5034717;28;20041;-73
2022/08/25 12:22:01;;;;;;;11.70;5.05;;;;;;;;;;5034028;28;20053;-72
2022/08/25 12:24:41;;;;;;;8.68;4.90;;;;;;;;;;5035475;28;20596;-72
2022/08/25 12:27:29;;;;;;;9.97;5.10;;;;;;;;;;5035797;28;20091;-74
2022/08/25 12:30:13;;;;;;;8.85;4.88;;;;;;;;;;5034990;28;20057;-73
2022/08/25 12:33:03;;;;;;;13.75;5.30;;;;;;;;;;5038044;28;20457;-72
2022/08/25 12:35:32;;;;;;;15.27;6.28;;;;;;;;;;5038234;28;20390;-70
2022/08/25 12:38:05;;;;;;;10.27;4.68;;;;;;;;;;5035577;28;20046;-71
2022/08/25 12:40:38;;;;;;;12.45;4.65;;;;;;;;;;5037317;28;20041;-73
2022/08/25 12:43:09;;;;;;;6.90;4.80;;;;;;;;;;5038578;28;20043;-73
2022/08/25 12:45:38;;;;;;;9.43;4.60;;;;;;;;;;5038064;28;20160;-74
2022/08/25 12:48:25;;;;;;;9.02;4.82;;;;;;;;;;5039342;28;20052;-72
2022/08/25 12:51:03;;;;;;;9.35;4.43;;;;;;;;;;5038505;28;20041;-74
2022/08/25 12:53:39;;;;;;;10.75;5.00;;;;;;;;;;5040469;28;20089;-73
2022/08/25 12:56:29;;;;;;;10.30;5.00;;;;;;;;;;5040250;28;20045;-74
2022/08/25 12:59:00;;;;;;;8.10;5.28;;;;;;;;;;5037924;28;20057;-74
2022/08/25 13:01:53;;;;;;;13.57;5.40;;;;;;;;;;5038544;28;20106;-71
2022/08/25 13:04:30;;;;;;;10.70;5.50;;;;;;;;;;5052947;28;20163;-70
2022/08/25 13:07:05;;;;;;;12.02;5.13;;;;;;;;;;5039779;28;20541;-69
2022/08/25 13:09:57;;;;;;;11.10;5.13;;;;;;;;;;5039446;28;20044;-70
2022/08/25 13:12:47;;;;;;;15.10;5.78;;;;;;;;;;5037386;28;20092;-68
2022/08/25 13:15:34;;;;;;;17.35;5.93;;;;;;;;;;5039811;28;20056;-69
2022/08/25 13:18:17;;;;;;;12.57;5.50;;;;;;;;;;5038126;28;20098;-68
2022/08/25 13:20:43;;;;;;;15.18;5.70;;;;;;;;;;5038733;28;20048;-68
2022/08/25 13:23:09;;;;;;;14.82;5.45;;;;;;;;;;5040799;28;20392;-68
2022/08/25 13:25:45;;;;;;;11.82;5.55;;;;;;;;;;5040839;28;20056;-76
2022/08/25 13:28:44;;;;;;;19.65;6.35;;;;;;;;;;5041094;28;20074;-68
2022/08/25 13:31:20;;;;;;;14.88;5.68;;;;;;;;;;5036255;28;20043;-68
2022/08/25 13:34:04;;;;;;;17.35;5.60;;;;;;;;;;5037492;28;20045;-68
2022/08/25 13:39:37;;;;;;;12.45;5.53;;;;;;;;;;5038396;28;20052;-70
2022/08/25 13:42:06;;;;;;;12.32;4.93;;;;;;;;;;5039125;28;20051;-68
2022/08/25 13:44:37;;;;;;;19.90;5.70;;;;;;;;;;5054136;28;20047;-68
2022/08/25 13:47:11;;;;;;;17.92;5.53;;;;;;;;;;5039295;28;20088;-68
2022/08/25 13:49:39;;;;;;;20.83;6.43;;;;;;;;;;5040183;28;20048;-71
2022/08/25 13:52:06;;;;;;;22.63;7.15;;;;;;;;;;5040067;28;20053;-70
2022/08/25 13:54:40;;;;;;;18.83;6.80;;;;;;;;;;5037344;28;20059;-70
2022/08/25 13:57:20;;;;;;;14.90;6.85;;;;;;;;;;5040129;28;20140;-70
2022/08/25 13:59:54;;;;;;;19.98;6.95;;;;;;;;;;5053529;28;20049;-70
2022/08/25 14:02:41;;;;;;;17.35;6.40;;;;;;;;;;5037292;28;20053;-69
2022/08/25 14:05:07;;;;;;;22.27;6.80;;;;;;;;;;5038971;28;20059;-69
2022/08/25 14:07:33;;;;;;;18.70;6.45;;;;;;;;;;5040221;28;20095;-69
2022/08/25 14:10:00;;;;;;;23.88;6.30;;;;;;;;;;5037912;28;20178;-69
2022/08/25 14:12:30;;;;;;;22.00;6.80;;;;;;;;;;5040844;28;20517;-69
2022/08/25 14:15:23;;;;;;;19.77;6.82;;;;;;;;;;5041453;28;20056;-71
2022/08/25 14:18:00;;;;;;;21.75;6.68;;;;;;;;;;5029559;28;20044;-70
2022/08/25 14:20:29;;;;;;;17.98;6.45;;;;;;;;;;5040816;28;20145;-68
2022/08/25 14:22:59;;;;;;;19.73;6.72;;;;;;;;;;5041233;28;21015;-69
2022/08/25 14:25:26;;;;;;;16.73;6.47;;;;;;;;;;5041437;28;20053;-69
2022/08/25 14:28:02;;;;;;;23.38;6.75;;;;;;;;;;5039119;28;20047;-69
2022/08/25 14:30:29;;;;;;;16.58;6.10;;;;;;;;;;5041093;28;20045;-69
2022/08/25 14:32:55;;;;;;;18.48;6.20;;;;;;;;;;5040951;28;20061;-70
2022/08/25 14:35:21;;;;;;;28.45;6.70;;;;;;;;;;5041159;28;20056;-70
2022/08/25 14:37:47;;;;;;;15.20;6.00;;;;;;;;;;5039578;28;20063;-71
2022/08/25 14:40:15;;;;;;;26.77;6.68;;;;;;;;;;5034964;28;20048;-69
2022/08/25 14:42:40;;;;;;;23.75;6.53;;;;;;;;;;5040299;28;20032;-71
2022/08/25 14:45:07;;;;;;;23.33;7.38;;;;;;;;;;5040410;28;20052;-71
2022/08/25 14:47:33;;;;;;;16.40;6.38;;;;;;;;;;5040118;28;20143;-71
2022/08/25 14:50:00;;;;;;;16.25;7.20;;;;;;;;;;5039178;28;20045;-71
2022/08/25 14:52:28;;;;;;;14.48;5.68;;;;;;;;;;5039393;28;20076;-71
2022/08/25 14:54:56;;;;;;;20.98;6.47;;;;;;;;;;5038979;28;20048;-69
2022/08/25 14:57:22;;;;;;;17.42;6.53;;;;;;;;;;5038439;28;20045;-70
2022/08/25 14:59:47;;;;;;;17.42;6.88;;;;;;;;;;5037642;28;20049;-70
2022/08/25 15:02:17;;;;;;;19.42;6.03;;;;;;;;;;5038501;28;20059;-70
2022/08/25 15:04:48;;;;;;;18.48;6.93;;;;;;;;;;5038739;28;21202;-70
2022/08/25 15:09:57;;;;;;;22.40;6.82;;;;;;;;;;5040344;28;20573;-70